createdAt,value
2022-12-24T00:01:21.822Z,10.05
2022-12-24T00:03:50.024Z,10.03
2022-12-24T00:06:21.505Z,9.85
2022-12-24T00:08:49.505Z,10.03
2022-12-24T00:11:17.565Z,9.78
2022-12-24T00:13:46.833Z,9.88
2022-12-24T00:16:14.814Z,10.00
2022-12-24T00:18:46.164Z,9.67
2022-12-24T00:21:15.082Z,9.31
2022-12-24T00:23:43.427Z,9.46
2022-12-24T00:26:11.526Z,9.71
2022-12-24T00:28:39.408Z,9.71
2022-12-24T00:31:14.549Z,9.81
2022-12-24T00:33:42.665Z,9.82
2022-12-24T00:36:10.989Z,9.48
2022-12-24T00:38:39.324Z,9.73
2022-12-24T00:41:24.773Z,9.75
2022-12-24T00:43:53.990Z,9.88
2022-12-24T00:46:23.978Z,9.70
2022-12-24T00:48:52.249Z,9.95
2022-12-24T00:51:21.262Z,9.57
2022-12-24T00:53:49.426Z,9.61
2022-12-24T00:56:17.447Z,9.51
2022-12-24T00:58:45.391Z,9.88
2022-12-24T01:01:13.434Z,9.84
2022-12-24T01:03:42.929Z,9.94
2022-12-24T01:06:12.563Z,9.97
2022-12-24T01:08:41.335Z,9.76
2022-12-24T01:11:10.487Z,9.73
2022-12-24T01:13:39.085Z,10.00
2022-12-24T01:16:15.683Z,9.97
2022-12-24T01:18:44.984Z,9.58
2022-12-24T01:21:14.599Z,9.73
2022-12-24T01:23:42.752Z,9.70
2022-12-24T01:26:12.146Z,9.94
2022-12-24T01:28:40.276Z,9.76
2022-12-24T01:31:13.351Z,9.97
2022-12-24T01:33:41.708Z,9.79
2022-12-24T01:36:11.391Z,9.50
2022-12-24T01:38:39.848Z,9.79
2022-12-24T01:41:25.530Z,9.71
2022-12-24T01:43:53.515Z,9.67
2022-12-24T01:46:25.987Z,9.59
2022-12-24T01:48:56.442Z,9.64
2022-12-24T01:51:31.561Z,9.66
2022-12-24T01:54:03.665Z,9.48
2022-12-24T01:56:33.529Z,9.75
2022-12-24T01:59:06.694Z,9.87
2022-12-24T02:01:35.646Z,9.65
2022-12-24T02:04:09.778Z,9.58
2022-12-24T02:06:39.060Z,9.89
2022-12-24T02:09:07.262Z,9.76
2022-12-24T02:11:38.403Z,9.85
2022-12-24T02:14:06.316Z,9.68
2022-12-24T02:16:44.290Z,9.63
2022-12-24T02:19:35.669Z,9.96
2022-12-24T02:22:08.245Z,9.97
2022-12-24T02:25:08.565Z,9.66
2022-12-24T02:27:48.701Z,9.74
2022-12-24T02:30:20.939Z,9.79
2022-12-24T02:33:16.365Z,9.51
2022-12-24T02:35:51.072Z,9.93
2022-12-24T02:38:27.345Z,9.63
2022-12-24T02:40:58.976Z,9.97
2022-12-24T02:43:33.818Z,10.15
2022-12-24T02:46:07.246Z,9.84
2022-12-24T02:48:38.007Z,9.93
2022-12-24T02:51:08.567Z,9.88
2022-12-24T02:53:37.907Z,10.08
2022-12-24T02:56:19.251Z,9.87
2022-12-24T02:59:03.073Z,9.98
2022-12-24T03:01:46.172Z,9.97
2022-12-24T03:04:39.553Z,9.89
2022-12-24T03:07:16.407Z,9.97
2022-12-24T03:09:57.210Z,9.73
2022-12-24T03:12:31.725Z,9.92
2022-12-24T03:15:00.607Z,9.70
2022-12-24T03:17:30.069Z,10.05
2022-12-24T03:19:57.933Z,10.05
2022-12-24T03:22:27.495Z,9.77
2022-12-24T03:24:56.322Z,9.93
2022-12-24T03:27:27.024Z,9.79
2022-12-24T03:29:55.147Z,10.03
2022-12-24T03:32:25.754Z,9.94
2022-12-24T03:34:55.012Z,9.84
2022-12-24T03:37:23.230Z,9.84
2022-12-24T03:39:51.123Z,10.05
2022-12-24T03:42:18.973Z,10.01
2022-12-24T03:44:46.897Z,10.02
2022-12-24T03:47:14.754Z,9.83
2022-12-24T03:49:42.711Z,9.84
2022-12-24T03:52:11.939Z,9.97
2022-12-24T03:54:39.807Z,9.94
2022-12-24T03:57:07.704Z,9.93
2022-12-24T03:59:35.595Z,9.89
2022-12-24T04:02:03.549Z,10.05
2022-12-24T04:04:33.489Z,9.96
2022-12-24T04:07:01.567Z,9.98
2022-12-24T04:09:30.910Z,10.18
2022-12-24T04:11:58.811Z,9.90
2022-12-24T04:14:26.697Z,10.03
2022-12-24T04:16:54.625Z,9.94
2022-12-24T04:19:22.529Z,9.93
2022-12-24T04:21:50.389Z,9.74
2022-12-24T04:24:18.271Z,9.96
2022-12-24T04:26:47.481Z,9.94
2022-12-24T04:29:15.420Z,9.65
2022-12-24T04:31:43.365Z,9.81
2022-12-24T04:34:11.329Z,9.79
2022-12-24T04:36:39.460Z,9.95
2022-12-24T04:39:07.638Z,9.84
2022-12-24T04:41:35.717Z,10.00
2022-12-24T04:44:05.015Z,10.09
2022-12-24T04:46:33.685Z,10.13
2022-12-24T04:49:01.615Z,9.92
2022-12-24T04:51:30.459Z,9.22
2022-12-24T04:53:58.563Z,9.23
2022-12-24T04:56:28.106Z,9.36
2022-12-24T04:58:56.568Z,9.61
2022-12-24T05:01:28.059Z,9.23
2022-12-24T05:03:56.571Z,9.53
2022-12-24T05:06:27.902Z,9.58
2022-12-24T05:08:56.445Z,9.45
2022-12-24T05:11:24.440Z,8.88
2022-12-24T05:13:52.730Z,9.05
2022-12-24T05:16:22.469Z,9.14
2022-12-24T05:18:52.150Z,9.12
2022-12-24T05:21:22.452Z,9.02
2022-12-24T05:24:08.673Z,9.16
2022-12-24T05:26:40.429Z,9.07
2022-12-24T05:29:09.608Z,9.16
2022-12-24T05:31:39.489Z,8.98
2022-12-24T05:34:09.719Z,9.17
2022-12-24T05:36:38.014Z,8.82
2022-12-24T05:39:11.371Z,8.82
2022-12-24T05:41:43.128Z,8.80
2022-12-24T05:44:11.165Z,9.08
2022-12-24T05:46:39.298Z,8.89
2022-12-24T05:49:08.630Z,9.01
2022-12-24T05:51:36.491Z,9.27
2022-12-24T05:54:05.617Z,8.82
2022-12-24T05:56:33.775Z,8.95
2022-12-24T05:59:01.720Z,9.50
2022-12-24T06:01:29.743Z,9.35
2022-12-24T06:03:58.407Z,8.96
2022-12-24T06:06:29.264Z,9.14
2022-12-24T06:08:57.497Z,9.27
2022-12-24T06:11:27.505Z,9.01
2022-12-24T06:13:56.092Z,9.24
2022-12-24T06:16:26.324Z,9.23
2022-12-24T06:18:54.429Z,9.20
2022-12-24T06:21:22.453Z,9.46
2022-12-24T06:23:51.859Z,9.28
2022-12-24T06:26:21.512Z,9.47
2022-12-24T06:28:50.327Z,9.48
2022-12-24T06:31:20.376Z,9.53
2022-12-24T06:33:48.685Z,9.61
2022-12-24T06:36:18.891Z,9.00
2022-12-24T06:38:47.162Z,9.56
2022-12-24T06:41:17.895Z,9.33
2022-12-24T06:43:46.788Z,8.98
2022-12-24T06:46:15.869Z,9.05
2022-12-24T06:48:45.487Z,9.00
2022-12-24T06:51:14.191Z,8.98
2022-12-24T06:53:42.206Z,9.08
2022-12-24T06:56:12.543Z,9.54
2022-12-24T06:58:42.377Z,9.02
2022-12-24T07:01:12.829Z,9.33
2022-12-24T07:03:41.130Z,9.19
2022-12-24T07:06:16.368Z,9.56
2022-12-24T07:08:44.358Z,9.33
2022-12-24T07:11:12.263Z,9.31
2022-12-24T07:13:41.819Z,9.35
2022-12-24T07:16:09.870Z,9.46
2022-12-24T07:18:37.930Z,9.28
2022-12-24T07:21:07.186Z,9.28
2022-12-24T07:23:35.879Z,9.49
2022-12-24T07:26:05.322Z,9.53
2022-12-24T07:28:33.224Z,9.73
2022-12-24T07:31:03.459Z,9.78
2022-12-24T07:33:31.477Z,9.46
2022-12-24T07:36:01.495Z,9.54
2022-12-24T07:38:29.732Z,9.79
2022-12-24T07:40:58.127Z,9.83
2022-12-24T07:43:26.514Z,9.89
2022-12-24T07:45:57.786Z,9.75
2022-12-24T07:48:28.690Z,9.97
2022-12-24T07:50:57.280Z,9.52
2022-12-24T07:53:25.990Z,9.66
2022-12-24T07:55:54.201Z,9.39
2022-12-24T07:58:23.281Z,9.32
2022-12-24T08:00:55.919Z,9.50
2022-12-24T08:03:24.100Z,9.53
2022-12-24T08:05:53.814Z,9.16
2022-12-24T08:08:22.023Z,9.21
2022-12-24T08:10:50.056Z,9.41
2022-12-24T08:13:18.369Z,9.27
2022-12-24T08:15:46.616Z,9.57
2022-12-24T08:18:14.499Z,9.54
2022-12-24T08:20:42.782Z,9.09
2022-12-24T08:23:12.274Z,9.17
2022-12-24T08:25:44.548Z,9.12
2022-12-24T08:28:13.033Z,9.06
2022-12-24T08:30:41.180Z,8.81
2022-12-24T08:33:09.108Z,9.25
2022-12-24T08:35:37.005Z,9.49
2022-12-24T08:38:04.991Z,9.52
2022-12-24T08:40:34.290Z,9.35
2022-12-24T08:43:02.948Z,9.76
2022-12-24T08:45:36.148Z,9.43
2022-12-24T08:48:08.194Z,9.60
2022-12-24T08:50:36.151Z,9.88
2022-12-24T08:53:04.103Z,9.49
2022-12-24T08:55:32.243Z,9.17
2022-12-24T08:58:02.449Z,9.17
2022-12-24T09:00:30.655Z,9.23
2022-12-24T09:02:59.341Z,9.07
2022-12-24T09:05:27.380Z,9.54
2022-12-24T09:07:55.307Z,9.63
2022-12-24T09:10:24.053Z,9.52
2022-12-24T09:12:52.220Z,9.63
2022-12-24T09:15:21.442Z,9.79
2022-12-24T09:17:49.368Z,9.71
2022-12-24T09:20:17.284Z,9.68
2022-12-24T09:22:45.159Z,9.58
2022-12-24T09:25:13.014Z,9.65
2022-12-24T09:27:40.858Z,9.28
2022-12-24T09:30:09.956Z,8.88
2022-12-24T09:32:39.202Z,9.23
2022-12-24T09:35:07.434Z,9.67
2022-12-24T09:37:35.351Z,9.69
2022-12-24T09:40:03.182Z,9.83
2022-12-24T09:42:42.603Z,10.19
2022-12-24T09:45:17.793Z,10.23
2022-12-24T09:47:50.873Z,10.29
2022-12-24T09:50:31.340Z,10.39
2022-12-24T09:53:02.994Z,10.42
2022-12-24T09:55:34.666Z,10.47
2022-12-24T09:58:06.143Z,10.28
2022-12-24T10:00:37.694Z,10.38
2022-12-24T10:03:16.624Z,10.46
2022-12-24T10:05:52.932Z,10.47
2022-12-24T10:08:29.437Z,10.50
2022-12-24T10:11:05.929Z,10.24
2022-12-24T10:13:46.581Z,10.01
2022-12-24T10:16:22.624Z,10.42
2022-12-24T10:19:01.386Z,10.56
2022-12-24T10:21:38.407Z,10.69
2022-12-24T10:24:11.729Z,10.72
2022-12-24T10:26:44.820Z,10.71
2022-12-24T10:29:17.311Z,10.52
2022-12-24T10:31:52.010Z,10.81
2022-12-24T10:34:24.053Z,10.86
2022-12-24T10:36:52.871Z,10.98
2022-12-24T10:39:23.892Z,10.88
2022-12-24T10:41:55.294Z,10.77
2022-12-24T10:44:25.604Z,10.96
2022-12-24T10:46:53.757Z,10.93
2022-12-24T10:49:31.231Z,11.08
2022-12-24T10:52:04.118Z,10.82
2022-12-24T10:54:39.103Z,11.07
2022-12-24T10:57:23.730Z,11.01
2022-12-24T10:59:54.601Z,10.59
2022-12-24T11:02:30.879Z,11.14
2022-12-24T11:05:01.036Z,11.14
2022-12-24T11:07:31.107Z,10.86
2022-12-24T11:10:00.712Z,10.96
2022-12-24T11:12:32.833Z,10.59
2022-12-24T11:15:03.570Z,11.05
2022-12-24T11:17:31.957Z,11.25
2022-12-24T11:20:03.358Z,11.22
2022-12-24T11:22:32.817Z,10.92
2022-12-24T11:25:05.519Z,11.39
2022-12-24T11:27:47.199Z,11.24
2022-12-24T11:30:27.509Z,11.42
2022-12-24T11:33:20.086Z,11.46
2022-12-24T11:35:54.167Z,11.26
2022-12-24T11:38:25.501Z,11.01
2022-12-24T11:41:01.343Z,11.36
2022-12-24T11:43:44.476Z,11.38
2022-12-24T11:46:16.619Z,11.41
2022-12-24T11:48:44.643Z,11.54
2022-12-24T11:51:24.396Z,11.57
2022-12-24T11:53:59.892Z,11.59
2022-12-24T11:56:36.172Z,11.39
2022-12-24T11:59:12.643Z,11.46
2022-12-24T12:01:49.158Z,11.47
2022-12-24T12:04:21.698Z,11.67
2022-12-24T12:06:53.651Z,11.67
2022-12-24T12:09:25.657Z,11.22
2022-12-24T12:11:58.027Z,11.73
2022-12-24T12:14:31.771Z,11.74
2022-12-24T12:17:05.161Z,11.97
2022-12-24T12:19:40.227Z,11.94
2022-12-24T12:22:17.630Z,12.08
2022-12-24T12:24:52.466Z,12.02
2022-12-24T12:27:26.305Z,11.97
2022-12-24T12:30:00.547Z,12.03
2022-12-24T12:32:38.538Z,11.88
2022-12-24T12:35:18.056Z,12.29
2022-12-24T12:37:52.663Z,12.16
2022-12-24T12:40:20.728Z,12.01
2022-12-24T12:42:56.770Z,12.20
2022-12-24T12:45:39.196Z,12.18
2022-12-24T12:48:21.694Z,12.27
2022-12-24T12:50:55.631Z,12.23
2022-12-24T12:53:41.351Z,12.35
2022-12-24T12:56:19.095Z,12.13
2022-12-24T12:58:53.414Z,12.05
2022-12-24T13:01:32.538Z,12.25
2022-12-24T13:04:29.359Z,12.36
2022-12-24T13:07:32.700Z,12.38
2022-12-24T13:10:19.474Z,11.90
2022-12-24T13:13:03.493Z,12.21
2022-12-24T13:15:52.295Z,12.20
2022-12-24T13:18:37.711Z,12.32
2022-12-24T13:21:05.995Z,12.26
2022-12-24T13:23:34.086Z,12.41
2022-12-24T13:26:12.426Z,12.37
2022-12-24T13:28:40.529Z,12.27
2022-12-24T13:31:35.499Z,12.26
2022-12-24T13:34:04.469Z,11.89
2022-12-24T13:37:21.199Z,12.11
2022-12-24T13:40:18.240Z,12.19
2022-12-24T13:43:07.876Z,12.26
2022-12-24T13:45:50.258Z,12.10
2022-12-24T13:48:32.446Z,12.22
2022-12-24T13:51:02.696Z,12.25
2022-12-24T13:53:34.347Z,12.14
2022-12-24T13:56:08.563Z,12.17
2022-12-24T13:58:40.845Z,11.96
2022-12-24T14:01:12.745Z,11.88
2022-12-24T14:03:44.970Z,12.09
2022-12-24T14:06:22.050Z,12.07
2022-12-24T14:08:52.758Z,12.05
2022-12-24T14:11:22.507Z,12.07
2022-12-24T14:14:10.967Z,12.10
2022-12-24T14:16:50.078Z,11.99
2022-12-24T14:19:22.369Z,11.92
2022-12-24T14:21:57.246Z,12.08
2022-12-24T14:24:28.315Z,12.02
2022-12-24T14:26:58.727Z,12.05
2022-12-24T14:29:33.052Z,12.06
2022-12-24T14:32:04.312Z,12.16
2022-12-24T14:34:32.972Z,12.01
2022-12-24T14:37:04.578Z,12.12
2022-12-24T14:39:35.655Z,12.14
2022-12-24T14:42:27.766Z,12.12
2022-12-24T14:45:06.468Z,11.94
2022-12-24T14:47:42.790Z,11.87
2022-12-24T14:50:41.288Z,11.88
2022-12-24T14:53:22.351Z,11.89
2022-12-24T14:55:51.367Z,11.86
2022-12-24T14:58:32.729Z,11.93
2022-12-24T15:01:04.134Z,11.92
2022-12-24T15:03:33.535Z,11.96
2022-12-24T15:06:04.011Z,11.89
2022-12-24T15:08:34.732Z,11.89
2022-12-24T15:11:06.845Z,11.85
2022-12-24T15:13:38.333Z,11.79
2022-12-24T15:16:11.090Z,11.62
2022-12-24T15:18:43.078Z,11.75
2022-12-24T15:21:18.219Z,11.72
2022-12-24T15:23:49.600Z,11.47
2022-12-24T15:26:23.585Z,11.47
2022-12-24T15:28:56.542Z,11.60
2022-12-24T15:31:30.573Z,11.52
2022-12-24T15:34:00.303Z,11.51
2022-12-24T15:36:31.396Z,11.50
2022-12-24T15:39:02.107Z,11.45
2022-12-24T15:41:37.957Z,11.55
2022-12-24T15:44:06.218Z,11.50
2022-12-24T15:46:35.689Z,11.39
2022-12-24T15:49:04.557Z,11.39
2022-12-24T15:51:38.250Z,11.32
2022-12-24T15:54:12.142Z,11.26
2022-12-24T15:56:44.372Z,11.36
2022-12-24T15:59:31.033Z,11.38
2022-12-24T16:02:29.239Z,11.31
2022-12-24T16:05:28.445Z,11.14
2022-12-24T16:08:11.177Z,11.25
2022-12-24T16:10:42.213Z,10.97
2022-12-24T16:13:17.370Z,10.96
2022-12-24T16:15:50.129Z,11.02
2022-12-24T16:18:24.941Z,11.06
2022-12-24T16:20:55.039Z,11.07
2022-12-24T16:23:25.572Z,10.94
2022-12-24T16:25:53.955Z,10.80
2022-12-24T16:28:23.235Z,10.88
2022-12-24T16:30:51.554Z,10.73
2022-12-24T16:33:23.422Z,10.87
2022-12-24T16:35:51.737Z,10.86
2022-12-24T16:38:19.641Z,10.90
2022-12-24T17:57:07.480Z,9.55
2022-12-24T17:59:35.311Z,10.05
2022-12-24T18:02:04.847Z,10.30
2022-12-24T18:04:32.874Z,10.47
2022-12-24T18:07:03.161Z,10.52
2022-12-24T18:09:31.442Z,10.80
2022-12-24T18:11:59.506Z,10.89
2022-12-24T18:14:29.277Z,10.88
2022-12-24T18:16:57.187Z,10.97
2022-12-24T18:19:25.057Z,10.98
2022-12-24T18:21:52.961Z,11.01
2022-12-24T18:24:20.904Z,11.08
2022-12-24T18:26:49.485Z,11.07
2022-12-24T18:29:17.720Z,11.16
2022-12-24T18:31:46.998Z,11.11
2022-12-24T18:34:15.483Z,11.11
2022-12-24T18:36:43.562Z,11.00
2022-12-24T18:39:11.464Z,11.02
2022-12-24T18:41:39.449Z,10.97
2022-12-24T18:44:07.347Z,11.11
2022-12-24T18:46:35.302Z,11.27
2022-12-24T18:49:04.730Z,11.14
2022-12-24T18:51:35.398Z,11.30
2022-12-24T18:54:03.795Z,11.29
2022-12-24T18:56:32.428Z,11.28
2022-12-24T18:59:02.373Z,11.09
2022-12-24T19:01:32.468Z,11.32
2022-12-24T19:04:01.360Z,11.29
2022-12-24T19:06:30.774Z,11.26
2022-12-24T19:09:00.781Z,11.33
2022-12-24T19:11:31.687Z,11.19
2022-12-24T19:14:00.000Z,11.41
2022-12-24T19:16:28.582Z,11.29
2022-12-24T19:18:57.217Z,11.26
2022-12-24T19:21:25.167Z,11.16
2022-12-24T19:23:54.488Z,11.18
2022-12-24T19:26:23.297Z,11.28
2022-12-24T19:28:51.641Z,11.10
2022-12-24T19:31:21.758Z,11.13
2022-12-24T19:33:51.797Z,11.12
2022-12-24T19:36:22.561Z,11.13
2022-12-24T19:39:03.475Z,11.14
2022-12-24T19:41:32.126Z,11.21
2022-12-24T19:44:02.333Z,11.16
2022-12-24T19:46:34.084Z,11.15
2022-12-24T19:49:06.058Z,11.11
2022-12-24T19:51:35.693Z,11.12
2022-12-24T19:54:06.124Z,10.93
2022-12-24T19:56:34.769Z,10.85
2022-12-24T19:59:03.585Z,10.84
2022-12-24T20:01:34.104Z,10.84
2022-12-24T20:04:05.232Z,10.80
2022-12-24T20:06:39.467Z,10.56
2022-12-24T20:09:09.491Z,10.79
2022-12-24T20:11:37.430Z,10.69
2022-12-24T20:14:07.683Z,10.86
2022-12-24T20:16:36.624Z,10.93
2022-12-24T20:19:06.553Z,11.00
2022-12-24T20:21:35.161Z,11.04
2022-12-24T20:24:03.173Z,11.08
2022-12-24T20:26:32.442Z,11.16
2022-12-24T20:29:04.490Z,10.81
2022-12-24T20:31:32.533Z,11.06
2022-12-24T20:34:02.154Z,11.08
2022-12-24T20:36:32.044Z,11.23
2022-12-24T20:39:00.356Z,11.23
2022-12-24T20:41:30.260Z,11.30
2022-12-24T20:44:04.444Z,11.34
2022-12-24T20:46:33.448Z,11.16
2022-12-24T20:49:01.477Z,11.22
2022-12-24T20:51:29.942Z,11.25
2022-12-24T20:54:00.302Z,11.01
2022-12-24T20:56:28.994Z,11.11
2022-12-24T20:58:58.330Z,11.13
2022-12-24T21:01:28.464Z,11.12
2022-12-24T21:03:57.886Z,11.27
2022-12-24T21:06:26.067Z,11.20
2022-12-24T21:08:54.779Z,11.26
2022-12-24T21:11:41.241Z,11.17
2022-12-24T21:14:10.025Z,11.36
2022-12-24T21:16:41.236Z,11.35
2022-12-24T21:19:10.442Z,10.97
2022-12-24T21:21:38.581Z,10.90
2022-12-24T21:24:07.175Z,11.04
2022-12-24T21:26:35.666Z,11.03
2022-12-24T21:29:05.122Z,10.98
2022-12-24T21:31:33.247Z,10.85
2022-12-24T21:34:02.574Z,10.88
2022-12-24T21:36:30.568Z,11.00
2022-12-24T21:38:58.480Z,11.10
2022-12-24T21:41:27.477Z,11.01
2022-12-24T21:43:55.964Z,11.16
2022-12-24T21:46:25.795Z,11.12
2022-12-24T21:49:11.951Z,11.21
2022-12-24T21:51:43.313Z,11.16
2022-12-24T21:54:30.738Z,11.13
2022-12-24T21:57:18.517Z,10.71
2022-12-24T21:59:47.175Z,10.89
2022-12-24T22:02:16.960Z,10.77
2022-12-24T22:04:45.276Z,10.93
2022-12-24T22:07:44.438Z,10.89
2022-12-24T22:10:31.847Z,10.82
2022-12-24T22:13:00.798Z,10.95
2022-12-24T22:15:28.689Z,10.84
2022-12-24T22:17:56.641Z,11.10
2022-12-24T22:20:24.633Z,10.93
2022-12-24T22:22:54.039Z,10.95
2022-12-24T22:25:21.947Z,10.96
2022-12-24T22:27:49.943Z,10.98
2022-12-24T22:30:17.912Z,11.03
2022-12-24T22:32:45.803Z,11.10
2022-12-24T22:35:13.746Z,10.94
2022-12-24T22:37:41.687Z,10.73
2022-12-24T22:40:12.169Z,10.80
2022-12-24T22:42:40.972Z,10.72
2022-12-24T22:45:12.596Z,10.73
2022-12-24T22:47:43.630Z,10.64
2022-12-24T22:50:12.550Z,10.76
2022-12-24T22:52:40.462Z,10.82
2022-12-24T22:55:09.180Z,10.52
2022-12-24T22:57:38.453Z,10.28
2022-12-24T23:00:12.907Z,10.47
2022-12-24T23:02:40.961Z,10.50
2022-12-24T23:05:12.466Z,10.46
2022-12-24T23:07:41.298Z,10.58
2022-12-24T23:10:10.150Z,10.61
2022-12-24T23:12:56.746Z,10.56
2022-12-24T23:15:24.668Z,10.60
2022-12-24T23:17:52.585Z,10.39
2022-12-24T23:20:20.488Z,10.50
2022-12-24T23:22:48.503Z,10.48
2022-12-24T23:25:16.547Z,10.24
2022-12-24T23:27:45.821Z,10.32
2022-12-24T23:30:13.999Z,10.27
2022-12-24T23:32:41.864Z,10.03
2022-12-24T23:35:10.343Z,10.13
2022-12-24T23:37:38.252Z,10.25
2022-12-24T23:40:06.902Z,10.21
2022-12-24T23:42:34.829Z,10.13
2022-12-24T23:45:04.274Z,10.20
2022-12-24T23:47:32.270Z,10.25
2022-12-24T23:50:00.160Z,10.25
2022-12-24T23:52:28.115Z,10.27
2022-12-24T23:54:55.977Z,10.12
2022-12-24T23:57:23.896Z,10.15
2022-12-24T23:59:51.751Z,10.15
